createdAt,value
2022-09-28T00:02:25.842Z,95910.16
2022-09-28T00:04:56.386Z,95914.09
2022-09-28T00:07:26.859Z,95887.97
2022-09-28T00:09:57.260Z,95914.56
2022-09-28T00:12:31.753Z,95909.66
2022-09-28T00:15:02.789Z,95906.41
2022-09-28T00:17:33.317Z,95911.16
2022-09-28T00:20:05.129Z,95906.25
2022-09-28T00:22:35.743Z,95904.03
2022-09-28T00:25:06.277Z,95890.53
2022-09-28T00:27:39.387Z,95891.78
2022-09-28T00:30:11.649Z,95899.25
2022-09-28T00:32:41.996Z,95902.16
2022-09-28T00:35:13.370Z,95897.25
2022-09-28T00:37:43.918Z,95895.91
2022-09-28T00:40:14.467Z,95897.81
2022-09-28T00:42:47.523Z,95900.69
2022-09-28T00:45:18.504Z,95893.94
2022-09-28T00:47:52.387Z,95892.53
2022-09-28T00:50:29.669Z,95879.81
2022-09-28T00:53:07.525Z,95887.03
2022-09-28T00:55:45.085Z,95889.69
2022-09-28T00:58:21.796Z,95896.31
2022-09-28T01:00:52.799Z,95897.13
2022-09-28T01:03:23.632Z,95893.84
2022-09-28T01:05:56.041Z,95889.78
2022-09-28T01:08:29.290Z,95880.41
2022-09-28T01:11:01.066Z,95897.28
2022-09-28T01:13:35.817Z,95902.91
2022-09-28T01:16:22.827Z,95901.50
2022-09-28T01:19:02.685Z,95908.34
2022-09-28T01:21:46.171Z,95897.06
2022-09-28T01:24:40.353Z,95901.22
2022-09-28T01:27:18.865Z,95898.63
2022-09-28T01:29:59.966Z,95901.28
2022-09-28T01:32:39.989Z,95898.47
2022-09-28T01:35:15.179Z,95894.22
2022-09-28T01:37:52.155Z,95903.06
2022-09-28T01:40:25.720Z,95905.94
2022-09-28T01:43:04.225Z,95900.25
2022-09-28T01:45:39.050Z,95911.72
2022-09-28T01:48:11.046Z,95904.75
2022-09-28T01:50:44.905Z,95906.00
2022-09-28T01:53:20.567Z,95907.06
2022-09-28T01:55:55.074Z,95902.75
2022-09-28T01:58:34.211Z,95899.91
2022-09-28T02:01:09.494Z,95897.25
2022-09-28T02:03:43.886Z,95907.34
2022-09-28T02:06:19.408Z,95899.97
2022-09-28T02:08:57.670Z,95920.13
2022-09-28T02:11:37.675Z,95920.53
2022-09-28T02:14:14.957Z,95922.16
2022-09-28T02:16:50.053Z,95927.72
2022-09-28T02:19:26.905Z,95919.78
2022-09-28T02:22:02.377Z,95924.69
2022-09-28T02:24:37.270Z,95924.91
2022-09-28T02:27:15.919Z,95919.19
2022-09-28T02:29:49.322Z,95920.22
2022-09-28T02:32:22.812Z,95923.91
2022-09-28T02:34:53.565Z,95924.38
2022-09-28T02:37:24.003Z,95926.44
2022-09-28T02:39:54.907Z,95915.00
2022-09-28T02:42:31.265Z,95909.94
2022-09-28T02:45:19.794Z,95925.91
2022-09-28T02:48:06.294Z,95923.44
2022-09-28T02:50:50.099Z,95928.16
2022-09-28T02:53:36.640Z,95920.41
2022-09-28T02:56:25.652Z,95923.69
2022-09-28T02:59:05.295Z,95920.88
2022-09-28T03:01:48.286Z,95921.09
2022-09-28T03:04:34.035Z,95920.09
2022-09-28T03:07:10.821Z,95921.28
2022-09-28T03:09:48.106Z,95926.06
2022-09-28T03:12:21.497Z,95922.19
2022-09-28T03:14:52.040Z,95934.31
2022-09-28T03:17:26.480Z,95926.13
2022-09-28T03:19:56.974Z,95927.16
2022-09-28T03:22:28.725Z,95928.81
2022-09-28T03:24:59.159Z,95917.34
2022-09-28T03:27:29.846Z,95932.94
2022-09-28T03:30:00.296Z,95926.19
2022-09-28T03:32:33.400Z,95933.56
2022-09-28T03:35:04.260Z,95930.94
2022-09-28T03:37:34.687Z,95935.25
2022-09-28T03:40:05.807Z,95932.81
2022-09-28T03:42:39.693Z,95932.41
2022-09-28T03:45:11.073Z,95941.44
2022-09-28T03:47:48.880Z,95937.16
2022-09-28T03:50:19.604Z,95939.19
2022-09-28T03:52:51.965Z,95936.97
2022-09-28T03:55:22.478Z,95933.47
2022-09-28T03:57:57.357Z,95935.56
2022-09-28T04:00:28.118Z,95941.91
2022-09-28T04:03:01.841Z,95945.81
2022-09-28T04:05:32.407Z,95951.13
2022-09-28T04:08:02.929Z,95952.34
2022-09-28T04:10:33.481Z,95952.81
2022-09-28T04:13:03.894Z,95950.16
2022-09-28T04:15:34.333Z,95960.38
2022-09-28T04:18:07.493Z,95963.25
2022-09-28T04:21:06.938Z,95957.38
2022-09-28T04:23:43.286Z,95977.84
2022-09-28T04:26:19.426Z,95977.25
2022-09-28T04:29:06.363Z,95983.63
2022-09-28T04:31:41.958Z,95981.16
2022-09-28T04:34:17.461Z,95990.41
2022-09-28T04:36:48.655Z,95986.69
2022-09-28T04:39:20.393Z,95990.41
2022-09-28T04:41:54.243Z,95998.38
2022-09-28T04:44:24.780Z,95993.47
2022-09-28T04:47:04.959Z,95999.19
2022-09-28T04:49:38.606Z,96002.47
2022-09-28T04:52:18.230Z,96000.41
2022-09-28T04:54:51.703Z,96004.50
2022-09-28T04:57:22.154Z,96009.00
2022-09-28T04:59:52.540Z,96011.69
2022-09-28T05:02:22.951Z,96001.56
2022-09-28T05:05:19.441Z,96006.25
2022-09-28T05:08:19.773Z,96004.53
2022-09-28T05:10:50.631Z,96003.03
2022-09-28T05:13:23.308Z,96007.03
2022-09-28T05:15:58.950Z,96006.91
2022-09-28T05:18:34.540Z,96009.22
2022-09-28T05:21:13.252Z,96018.28
2022-09-28T05:23:48.766Z,96023.59
2022-09-28T05:26:19.509Z,96013.69
2022-09-28T05:28:50.057Z,96011.53
2022-09-28T05:31:40.763Z,96011.56
2022-09-28T05:34:31.689Z,96013.66
2022-09-28T05:37:04.932Z,96012.19
2022-09-28T05:39:35.333Z,96002.69
2022-09-28T05:42:06.168Z,96001.22
2022-09-28T05:44:38.614Z,95998.59
2022-09-28T05:47:09.281Z,96000.88
2022-09-28T05:49:39.752Z,96005.09
2022-09-28T05:52:12.797Z,96004.03
2022-09-28T05:54:43.789Z,96002.41
2022-09-28T05:57:14.508Z,96010.59
2022-09-28T05:59:44.924Z,96007.56
2022-09-28T06:02:15.372Z,96008.06
2022-09-28T06:04:49.686Z,95998.31
2022-09-28T06:07:23.586Z,95994.16
2022-09-28T06:09:54.033Z,95995.56
2022-09-28T06:12:38.653Z,95995.53
2022-09-28T06:15:16.206Z,95999.22
2022-09-28T06:17:47.805Z,96006.84
2022-09-28T06:20:38.973Z,96011.44
2022-09-28T06:23:19.768Z,96006.78
2022-09-28T06:25:50.215Z,96005.28
2022-09-28T06:28:20.664Z,96014.03
2022-09-28T06:30:51.103Z,96007.31
2022-09-28T06:33:22.429Z,96001.44
2022-09-28T06:35:52.862Z,96002.09
2022-09-28T06:38:25.924Z,96000.59
2022-09-28T06:40:56.624Z,95991.16
2022-09-28T06:43:32.160Z,95993.25
2022-09-28T06:46:17.091Z,95996.91
2022-09-28T06:48:54.807Z,95988.16
2022-09-28T06:51:45.127Z,95986.50
2022-09-28T06:54:36.811Z,95989.22
2022-09-28T06:57:25.849Z,95986.56
2022-09-28T06:59:56.440Z,95984.59
2022-09-28T07:02:26.903Z,95990.16
2022-09-28T07:05:08.341Z,95993.00
2022-09-28T07:08:02.138Z,95988.94
2022-09-28T07:10:56.461Z,95976.38
2022-09-28T07:16:32.055Z,95986.31
2022-09-28T07:19:06.532Z,95994.69
2022-09-28T07:21:37.113Z,95985.31
2022-09-28T07:24:14.397Z,95994.47
2022-09-28T07:27:10.296Z,95981.53
2022-09-28T07:29:59.028Z,95972.47
2022-09-28T07:32:59.687Z,95977.44
2022-09-28T07:35:39.647Z,95959.41
2022-09-28T07:38:11.204Z,95960.34
2022-09-28T07:40:54.015Z,95967.00
2022-09-28T07:43:27.145Z,95968.34
2022-09-28T07:45:58.418Z,95964.78
2022-09-28T07:48:29.846Z,95965.66
2022-09-28T07:51:12.927Z,95964.69
2022-09-28T07:53:46.056Z,95976.47
2022-09-28T07:56:39.731Z,95976.56
2022-09-28T07:59:22.354Z,95964.44
2022-09-28T08:02:13.128Z,95978.06
2022-09-28T08:04:44.672Z,95966.19
2022-09-28T08:07:17.789Z,95976.78
2022-09-28T08:09:56.563Z,95971.66
2022-09-28T08:12:29.834Z,95981.41
2022-09-28T08:15:21.647Z,95972.94
2022-09-28T08:18:11.641Z,95982.84
2022-09-28T08:20:54.381Z,95984.56
2022-09-28T08:23:25.072Z,95989.47
2022-09-28T08:25:56.955Z,95987.06
2022-09-28T08:28:28.040Z,95983.28
2022-09-28T08:31:07.640Z,95978.94
2022-09-28T08:33:56.580Z,95983.72
2022-09-28T08:36:50.281Z,95979.16
2022-09-28T08:39:39.909Z,95985.47
2022-09-28T08:42:34.608Z,95979.03
2022-09-28T08:45:43.310Z,95977.63
2022-09-28T08:49:13.380Z,95975.38
2022-09-28T08:52:19.373Z,95977.91
2022-09-28T08:55:10.388Z,95974.56
2022-09-28T08:57:51.784Z,95978.44
2022-09-28T09:00:26.752Z,95985.97
2022-09-28T09:02:57.355Z,95980.44
2022-09-28T09:05:50.217Z,95979.56
2022-09-28T09:08:53.054Z,95975.78
2022-09-28T09:11:41.225Z,95973.88
2022-09-28T09:14:32.080Z,95972.19
2022-09-28T09:17:09.345Z,95960.59
2022-09-28T09:20:04.725Z,95971.34
2022-09-28T09:23:07.153Z,95974.63
2022-09-28T09:25:44.334Z,95966.97
2022-09-28T09:28:42.240Z,95969.63
2022-09-28T09:31:27.341Z,95970.38
2022-09-28T09:34:32.144Z,95964.22
2022-09-28T09:37:34.768Z,95972.22
2022-09-28T09:40:37.874Z,95963.22
2022-09-28T09:43:59.024Z,95958.56
2022-09-28T09:47:10.659Z,95959.50
2022-09-28T09:49:56.743Z,95956.59
2022-09-28T09:52:31.265Z,95956.19
2022-09-28T09:55:06.291Z,95957.09
2022-09-28T09:58:10.138Z,95952.34
2022-09-28T10:00:47.005Z,95944.91
2022-09-28T10:03:31.068Z,95952.38
2022-09-28T10:06:20.885Z,95949.94
2022-09-28T10:08:55.325Z,95949.94
2022-09-28T10:11:31.868Z,95943.47
2022-09-28T10:14:05.943Z,95944.00
2022-09-28T10:16:43.254Z,95945.50
2022-09-28T10:19:23.284Z,95947.22
2022-09-28T10:22:19.071Z,95938.63
2022-09-28T10:24:55.054Z,95947.69
2022-09-28T10:27:28.720Z,95946.34
2022-09-28T10:30:05.637Z,95946.78
2022-09-28T10:32:42.064Z,95951.59
2022-09-28T10:35:24.487Z,95948.00
2022-09-28T10:38:03.497Z,95935.22
2022-09-28T10:40:54.490Z,95933.22
2022-09-28T10:43:45.435Z,95937.31
2022-09-28T10:46:25.648Z,95932.53
2022-09-28T10:49:02.984Z,95932.13
2022-09-28T10:51:46.813Z,95930.25
2022-09-28T10:54:22.838Z,95925.75
2022-09-28T10:56:56.874Z,95922.25
2022-09-28T10:59:49.933Z,95922.78
2022-09-28T11:02:46.003Z,95918.63
2022-09-28T11:05:28.072Z,95920.72
2022-09-28T11:08:04.092Z,95921.06
2022-09-28T11:10:45.392Z,95917.53
2022-09-28T11:13:17.862Z,95917.69
2022-09-28T11:15:57.718Z,95915.94
2022-09-28T11:18:38.003Z,95913.84
2022-09-28T11:21:16.053Z,95914.44
2022-09-28T11:24:25.538Z,95919.75
2022-09-28T11:27:01.222Z,95912.94
2022-09-28T11:29:40.278Z,95914.06
2022-09-28T11:32:34.439Z,95921.47
2022-09-28T11:35:50.819Z,95922.38
2022-09-28T11:38:34.910Z,95916.53
2022-09-28T11:41:48.923Z,95903.78
2022-09-28T11:44:41.503Z,95902.81
2022-09-28T11:47:30.326Z,95900.41
2022-09-28T11:50:07.001Z,95905.88
2022-09-28T11:52:49.259Z,95901.72
2022-09-28T11:55:27.549Z,95907.91
2022-09-28T11:58:04.479Z,95896.84
2022-09-28T12:00:40.811Z,95899.00
2022-09-28T12:03:17.828Z,95900.78
2022-09-28T12:05:52.496Z,95902.91
2022-09-28T12:08:29.647Z,95900.31
2022-09-28T12:11:06.637Z,95888.91
2022-09-28T12:13:57.674Z,95882.41
2022-09-28T12:17:00.951Z,95887.72
2022-09-28T12:19:32.364Z,95890.28
2022-09-28T12:22:08.305Z,95886.88
2022-09-28T12:24:46.249Z,95882.34
2022-09-28T12:27:23.897Z,95888.25
2022-09-28T12:30:00.460Z,95884.03
2022-09-28T12:32:39.713Z,95883.75
2022-09-28T12:35:16.301Z,95886.28
2022-09-28T12:38:14.584Z,95897.44
2022-09-28T12:40:56.370Z,95896.16
2022-09-28T12:43:43.775Z,95890.16
2022-09-28T12:46:35.409Z,95888.16
2022-09-28T12:52:27.459Z,95887.72
2022-09-28T12:55:22.216Z,95879.50
2022-09-28T12:58:02.071Z,95878.31
2022-09-28T13:00:40.504Z,95869.53
2022-09-28T13:03:57.087Z,95881.44
2022-09-28T13:06:44.862Z,95877.69
2022-09-28T13:09:24.601Z,95882.16
2022-09-28T13:12:28.371Z,95885.50
2022-09-28T13:15:40.655Z,95877.91
2022-09-28T13:18:19.438Z,95874.28
2022-09-28T13:21:09.075Z,95886.84
2022-09-28T13:23:43.624Z,95880.88
2022-09-28T13:26:25.410Z,95863.94
2022-09-28T13:28:59.000Z,95887.56
2022-09-28T13:31:36.052Z,95886.56
2022-09-28T13:34:13.317Z,95887.16
2022-09-28T13:36:47.982Z,95889.41
2022-09-28T13:39:40.893Z,95891.41
2022-09-28T13:42:12.870Z,95892.84
2022-09-28T13:45:09.709Z,95887.97
2022-09-28T13:47:59.234Z,95872.03
2022-09-28T13:50:44.645Z,95876.47
2022-09-28T13:53:28.745Z,95886.06
2022-09-28T13:56:07.372Z,95885.88
2022-09-28T13:58:41.956Z,95897.38
2022-09-28T14:01:18.263Z,95894.44
2022-09-28T14:04:14.998Z,95896.63
2022-09-28T14:06:49.485Z,95890.16
2022-09-28T14:09:43.877Z,95879.19
2022-09-28T14:12:33.550Z,95889.47
2022-09-28T14:15:04.577Z,95895.22
2022-09-28T14:18:03.566Z,95891.97
2022-09-28T14:20:39.178Z,95897.22
2022-09-28T14:23:30.072Z,95906.53
2022-09-28T14:26:30.546Z,95908.53
2022-09-28T14:29:11.809Z,95908.63
2022-09-28T14:31:46.231Z,95906.00
2022-09-28T14:34:44.772Z,95902.84
2022-09-28T14:37:42.006Z,95902.44
2022-09-28T14:40:31.938Z,95908.28
2022-09-28T14:43:28.376Z,95907.53
2022-09-28T14:46:28.728Z,95915.81
2022-09-28T14:49:01.870Z,95919.66
2022-09-28T14:52:01.259Z,95904.53
2022-09-28T14:54:43.637Z,95906.03
2022-09-28T14:57:21.082Z,95908.50
2022-09-28T14:59:51.928Z,95902.03
2022-09-28T15:02:35.495Z,95903.22
2022-09-28T15:05:18.861Z,95914.19
2022-09-28T15:07:52.022Z,95911.56
2022-09-28T15:10:34.148Z,95913.31
2022-09-28T15:13:06.726Z,95916.84
2022-09-28T15:15:40.826Z,95908.75
2022-09-28T15:18:29.071Z,95909.41
2022-09-28T15:21:00.718Z,95917.34
2022-09-28T15:23:38.983Z,95914.16
2022-09-28T15:26:27.668Z,95918.84
2022-09-28T15:28:58.568Z,95925.44
2022-09-28T15:31:31.265Z,95930.13
2022-09-28T15:34:14.103Z,95928.31
2022-09-28T15:36:47.165Z,95930.53
2022-09-28T15:39:21.216Z,95929.78
2022-09-28T15:41:55.058Z,95928.25
2022-09-28T15:44:45.741Z,95930.78
2022-09-28T15:47:21.213Z,95934.94
2022-09-28T15:49:59.830Z,95933.44
2022-09-28T15:52:37.227Z,95950.34
2022-09-28T15:55:21.794Z,95949.34
2022-09-28T15:58:09.208Z,95955.38
2022-09-28T16:00:40.462Z,95954.34
2022-09-28T16:03:25.869Z,95952.25
2022-09-28T16:06:08.695Z,95957.22
2022-09-28T16:08:44.519Z,95944.81
2022-09-28T16:11:20.391Z,95960.03
2022-09-28T16:14:01.885Z,95952.47
2022-09-28T16:16:41.120Z,95957.38
2022-09-28T16:19:26.792Z,95960.41
2022-09-28T16:21:59.640Z,95963.41
2022-09-28T16:24:32.669Z,95968.31
2022-09-28T16:27:05.736Z,95968.63
2022-09-28T16:29:42.219Z,95973.81
2022-09-28T16:32:41.984Z,95971.41
2022-09-28T16:35:22.000Z,95977.13
2022-09-28T16:38:00.313Z,95983.13
2022-09-28T16:40:31.554Z,95988.03
2022-09-28T16:43:04.448Z,95989.69
2022-09-28T16:45:38.207Z,95986.44
2022-09-28T16:48:08.823Z,95986.19
2022-09-28T16:50:39.222Z,95982.97
2022-09-28T16:53:29.289Z,95964.06
2022-09-28T16:56:01.029Z,95980.56
2022-09-28T16:58:32.196Z,95980.56
2022-09-28T17:01:05.400Z,95992.22
2022-09-28T17:03:35.983Z,95994.94
2022-09-28T17:06:10.348Z,95996.81
2022-09-28T17:08:40.830Z,95999.00
2022-09-28T17:11:20.187Z,95999.81
2022-09-28T17:13:59.151Z,95994.66
2022-09-28T17:17:06.251Z,95999.00
2022-09-28T17:19:28.902Z,95994.66
2022-09-28T17:21:59.498Z,96001.16
2022-09-28T17:24:29.967Z,96001.69
2022-09-28T17:27:00.985Z,96003.84
2022-09-28T17:29:32.859Z,96003.06
2022-09-28T17:32:05.962Z,96008.72
2022-09-28T17:34:36.406Z,96015.44
2022-09-28T17:37:06.908Z,96017.84
2022-09-28T17:39:37.330Z,96011.84
2022-09-28T17:42:08.124Z,96004.25
2022-09-28T17:44:38.710Z,96015.03
2022-09-28T17:47:13.592Z,96013.41
2022-09-28T17:49:45.969Z,96020.63
2022-09-28T17:52:17.213Z,96015.47
2022-09-28T17:54:47.617Z,96015.13
2022-09-28T17:57:18.117Z,96007.22
2022-09-28T17:59:48.748Z,96008.03
2022-09-28T18:02:21.808Z,96013.66
2022-09-28T18:04:52.761Z,96015.72
2022-09-28T18:07:23.319Z,96013.00
2022-09-28T18:09:58.433Z,95998.91
2022-09-28T18:12:28.893Z,96012.91
2022-09-28T18:14:59.290Z,96011.00
2022-09-28T18:17:32.547Z,96019.06
2022-09-28T18:20:03.132Z,96020.41
2022-09-28T18:22:33.836Z,96013.31
2022-09-28T18:25:04.598Z,96009.50
2022-09-28T18:27:35.973Z,96018.13
2022-09-28T18:30:07.689Z,96018.88
2022-09-28T18:32:41.025Z,96017.00
2022-09-28T18:35:13.186Z,96022.91
2022-09-28T18:37:44.086Z,96018.56
2022-09-28T18:40:15.783Z,96014.50
2022-09-28T18:42:46.256Z,96026.59
2022-09-28T18:45:17.533Z,96022.78
2022-09-28T18:47:50.605Z,96026.81
2022-09-28T18:50:21.196Z,96036.47
2022-09-28T18:52:51.785Z,96035.09
2022-09-28T18:55:22.347Z,96029.38
2022-09-28T18:57:53.114Z,96032.03
2022-09-28T19:00:23.769Z,96032.88
2022-09-28T19:02:57.209Z,96040.91
2022-09-28T19:05:27.788Z,96027.34
2022-09-28T19:07:58.544Z,96039.50
2022-09-28T19:10:29.080Z,96032.44
2022-09-28T19:12:59.798Z,96041.81
2022-09-28T19:15:30.318Z,96045.00
2022-09-28T19:18:04.140Z,96052.53
2022-09-28T19:20:35.932Z,96042.75
2022-09-28T19:23:06.452Z,96040.84
2022-09-28T19:25:38.066Z,96058.88
2022-09-28T19:28:08.545Z,96051.31
2022-09-28T19:30:39.168Z,96055.31
2022-09-28T19:33:12.256Z,96045.59
2022-09-28T19:35:42.791Z,96058.25
2022-09-28T19:38:13.186Z,96067.13
2022-09-28T19:40:44.031Z,96066.84
2022-09-28T19:43:14.471Z,96058.19
2022-09-28T19:45:44.968Z,96055.41
2022-09-28T19:48:18.033Z,96062.53
2022-09-28T19:50:48.783Z,96056.19
2022-09-28T19:53:19.307Z,96060.44
2022-09-28T19:55:54.164Z,96060.94
2022-09-28T19:58:24.944Z,96057.75
2022-09-28T20:00:55.453Z,96053.72
2022-09-28T20:03:29.309Z,96057.97
2022-09-28T20:06:00.703Z,96055.78
2022-09-28T20:08:31.565Z,96059.84
2022-09-28T20:11:03.293Z,96061.97
2022-09-28T20:13:35.106Z,96067.66
2022-09-28T20:16:10.224Z,96068.75
2022-09-28T20:18:50.209Z,96063.31
2022-09-28T20:21:26.787Z,96062.50
2022-09-28T20:23:57.584Z,96060.09
2022-09-28T20:26:29.669Z,96066.59
2022-09-28T20:29:00.116Z,96067.69
2022-09-28T20:31:30.615Z,96069.88
2022-09-28T20:34:03.724Z,96068.81
2022-09-28T20:36:34.438Z,96066.13
2022-09-28T20:39:07.317Z,96064.50
2022-09-28T20:41:37.741Z,96069.38
2022-09-28T20:44:09.808Z,96057.22
2022-09-28T20:46:41.127Z,96069.91
2022-09-28T20:49:14.538Z,96069.91
2022-09-28T20:51:45.640Z,96066.13
2022-09-28T20:54:16.002Z,96055.03
2022-09-28T20:56:48.357Z,96062.06
2022-09-28T20:59:20.387Z,96058.28
2022-09-28T21:01:51.232Z,96064.47
2022-09-28T21:04:24.445Z,96058.25
2022-09-28T21:06:55.005Z,96038.38
2022-09-28T21:09:25.444Z,96053.47
2022-09-28T21:11:55.937Z,96060.09
2022-09-28T21:14:26.327Z,96049.91
2022-09-28T21:16:56.839Z,96061.66
2022-09-28T21:19:30.835Z,96059.31
2022-09-28T21:22:01.267Z,96063.16
2022-09-28T21:24:31.657Z,96068.63
2022-09-28T21:27:02.096Z,96071.66
2022-09-28T21:29:32.548Z,96067.16
2022-09-28T21:32:02.954Z,96064.84
2022-09-28T21:34:36.173Z,96067.91
2022-09-28T21:37:06.535Z,96052.53
2022-09-28T21:39:37.168Z,96062.72
2022-09-28T21:42:07.909Z,96057.28
2022-09-28T21:44:38.319Z,96057.47
2022-09-28T21:47:08.744Z,96048.72
2022-09-28T21:49:41.780Z,96051.06
2022-09-28T21:52:12.228Z,96046.09
2022-09-28T21:54:42.794Z,96055.41
2022-09-28T21:57:13.179Z,96051.50
2022-09-28T21:59:43.545Z,96046.84
2022-09-28T22:02:14.194Z,96039.72
2022-09-28T22:04:47.214Z,96040.47
2022-09-28T22:07:17.618Z,96048.72
2022-09-28T22:09:52.765Z,96034.84
2022-09-28T22:12:23.901Z,96033.31
2022-09-28T22:14:54.489Z,96025.63
2022-09-28T22:17:24.868Z,96040.94
2022-09-28T22:19:57.985Z,96040.06
2022-09-28T22:22:29.292Z,96048.59
2022-09-28T22:24:59.759Z,96045.22
2022-09-28T22:27:33.633Z,96046.28
2022-09-28T22:30:04.043Z,96035.44
2022-09-28T22:32:34.421Z,96041.75
2022-09-28T22:35:08.195Z,96044.91
2022-09-28T22:37:38.676Z,96040.81
2022-09-28T22:40:11.376Z,96048.28
2022-09-28T22:42:43.035Z,96046.91
2022-09-28T22:45:13.816Z,96041.81
2022-09-28T22:47:44.367Z,96043.91
2022-09-28T22:50:17.539Z,96046.03
2022-09-28T22:52:48.654Z,96039.50
2022-09-28T22:55:19.213Z,96040.44
2022-09-28T22:57:49.607Z,96038.00
2022-09-28T23:00:20.260Z,96050.84
2022-09-28T23:02:51.181Z,96052.16
2022-09-28T23:05:24.299Z,96052.06
2022-09-28T23:07:54.637Z,96049.84
2022-09-28T23:10:25.086Z,96054.06
2022-09-28T23:12:56.621Z,96051.59
2022-09-28T23:15:28.687Z,96051.03
2022-09-28T23:17:59.080Z,96055.03
2022-09-28T23:20:32.197Z,96065.13
2022-09-28T23:23:02.577Z,96062.94
2022-09-28T23:25:33.374Z,96058.50
2022-09-28T23:28:04.264Z,96059.34
2022-09-28T23:30:34.728Z,96067.63
2022-09-28T23:33:05.115Z,96073.00
2022-09-28T23:35:39.296Z,96066.47
2022-09-28T23:38:09.757Z,96065.63
2022-09-28T23:40:40.338Z,96066.13
2022-09-28T23:43:11.311Z,96059.13
2022-09-28T23:45:42.453Z,96056.06
2022-09-28T23:48:15.231Z,96045.47
2022-09-28T23:50:48.567Z,96056.81
2022-09-28T23:53:19.056Z,96057.25
2022-09-28T23:55:49.608Z,96053.66
2022-09-28T23:58:20.024Z,96045.03
